createdAt,value
2022-07-30T00:02:25.937Z,86.10
2022-07-30T00:04:55.662Z,86.78
2022-07-30T00:07:25.399Z,86.97
2022-07-30T00:09:55.090Z,86.80
2022-07-30T00:12:24.756Z,86.98
2022-07-30T00:14:57.026Z,86.97
2022-07-30T00:17:26.713Z,86.82
2022-07-30T00:19:57.933Z,87.39
2022-07-30T00:22:28.938Z,88.26
2022-07-30T00:24:58.686Z,87.88
2022-07-30T00:27:28.386Z,87.56
2022-07-30T00:30:00.710Z,87.02
2022-07-30T00:32:30.491Z,87.52
2022-07-30T00:35:00.156Z,87.31
2022-07-30T00:37:29.798Z,86.68
2022-07-30T00:40:00.031Z,86.98
2022-07-30T00:42:40.141Z,86.30
2022-07-30T00:45:14.511Z,86.66
2022-07-30T00:47:44.853Z,87.04
2022-07-30T00:50:16.832Z,86.86
2022-07-30T00:52:47.445Z,87.13
2022-07-30T00:55:18.369Z,86.94
2022-07-30T00:57:48.430Z,87.11
2022-07-30T01:00:21.410Z,87.55
2022-07-30T01:02:51.171Z,87.89
2022-07-30T01:05:20.974Z,88.69
2022-07-30T01:07:51.648Z,87.90
2022-07-30T01:10:21.705Z,87.23
2022-07-30T01:12:52.874Z,87.40
2022-07-30T01:15:25.562Z,88.31
2022-07-30T01:18:00.470Z,88.01
2022-07-30T01:20:32.191Z,88.63
2022-07-30T01:23:11.442Z,88.05
2022-07-30T01:25:58.355Z,87.69
2022-07-30T01:28:32.873Z,88.34
2022-07-30T01:31:03.994Z,89.78
2022-07-30T01:33:36.319Z,88.88
2022-07-30T01:36:07.494Z,88.97
2022-07-30T01:38:38.177Z,88.51
2022-07-30T01:41:12.585Z,88.19
2022-07-30T01:43:44.253Z,88.95
2022-07-30T01:46:16.620Z,89.25
2022-07-30T01:48:49.655Z,88.95
2022-07-30T01:51:21.949Z,89.34
2022-07-30T01:53:56.096Z,89.12
2022-07-30T01:56:29.078Z,89.42
2022-07-30T01:59:07.656Z,89.58
2022-07-30T02:01:37.844Z,89.73
2022-07-30T02:04:07.825Z,89.73
2022-07-30T02:06:43.798Z,89.65
2022-07-30T02:09:22.404Z,89.80
2022-07-30T02:12:10.249Z,89.41
2022-07-30T02:14:44.286Z,89.84
2022-07-30T02:17:19.455Z,89.99
2022-07-30T02:19:54.098Z,89.07
2022-07-30T02:22:25.862Z,88.81
2022-07-30T02:24:57.869Z,88.49
2022-07-30T02:27:34.674Z,88.62
2022-07-30T02:30:09.415Z,89.15
2022-07-30T02:32:43.731Z,88.88
2022-07-30T02:35:22.143Z,88.86
2022-07-30T02:37:55.334Z,88.87
2022-07-30T02:40:27.889Z,89.25
2022-07-30T02:43:01.920Z,89.66
2022-07-30T02:45:33.470Z,89.95
2022-07-30T02:48:06.700Z,89.81
2022-07-30T02:50:37.580Z,90.39
2022-07-30T02:53:12.315Z,90.03
2022-07-30T02:55:44.760Z,89.48
2022-07-30T02:58:20.102Z,89.65
2022-07-30T03:00:52.115Z,90.17
2022-07-30T03:03:29.024Z,89.87
2022-07-30T03:06:00.882Z,89.96
2022-07-30T03:08:31.828Z,89.32
2022-07-30T03:11:03.370Z,89.20
2022-07-30T03:13:35.998Z,88.53
2022-07-30T03:16:10.431Z,88.84
2022-07-30T03:18:42.400Z,88.19
2022-07-30T03:21:14.433Z,88.18
2022-07-30T03:23:47.031Z,88.69
2022-07-30T03:26:17.781Z,89.01
2022-07-30T03:28:51.983Z,88.94
2022-07-30T03:31:21.837Z,89.22
2022-07-30T03:33:52.578Z,88.84
2022-07-30T03:36:23.398Z,88.56
2022-07-30T03:38:54.006Z,88.62
2022-07-30T03:41:25.308Z,89.51
2022-07-30T03:44:00.532Z,89.00
2022-07-30T03:46:30.572Z,89.59
2022-07-30T03:49:01.677Z,90.65
2022-07-30T03:51:32.937Z,90.93
2022-07-30T03:54:03.544Z,90.80
2022-07-30T03:56:42.920Z,91.18
2022-07-30T03:59:24.657Z,91.22
2022-07-30T04:01:54.407Z,91.69
2022-07-30T04:04:39.030Z,91.72
2022-07-30T04:07:08.866Z,91.97
2022-07-30T04:09:38.957Z,91.44
2022-07-30T04:12:28.164Z,91.61
2022-07-30T04:15:00.486Z,90.29
2022-07-30T04:17:35.911Z,90.42
2022-07-30T04:20:17.743Z,89.73
2022-07-30T04:22:49.362Z,90.19
2022-07-30T04:25:24.231Z,89.98
2022-07-30T04:28:03.436Z,89.88
2022-07-30T04:30:37.013Z,90.36
2022-07-30T04:33:08.387Z,90.62
2022-07-30T04:36:00.828Z,91.56
2022-07-30T04:38:35.380Z,91.30
2022-07-30T04:41:05.474Z,91.90
2022-07-30T04:43:55.812Z,92.42
2022-07-30T04:46:28.250Z,92.36
2022-07-30T04:48:58.029Z,92.29
2022-07-30T04:51:37.072Z,92.12
2022-07-30T04:54:15.083Z,93.33
2022-07-30T04:56:50.571Z,93.72
2022-07-30T04:59:27.822Z,93.79
2022-07-30T05:02:03.533Z,93.97
2022-07-30T05:04:37.728Z,94.25
2022-07-30T05:07:09.988Z,94.12
2022-07-30T05:09:42.895Z,93.79
2022-07-30T05:12:14.545Z,93.55
2022-07-30T05:14:48.186Z,92.71
2022-07-30T05:17:23.490Z,91.88
2022-07-30T05:19:55.367Z,91.13
2022-07-30T05:22:30.143Z,91.30
2022-07-30T05:25:01.112Z,91.18
2022-07-30T05:27:31.950Z,90.68
2022-07-30T05:30:03.038Z,90.85
2022-07-30T05:32:42.086Z,90.87
2022-07-30T05:35:12.841Z,90.38
2022-07-30T05:37:42.846Z,90.05
2022-07-30T05:40:15.187Z,89.51
2022-07-30T05:43:04.421Z,89.45
2022-07-30T05:45:36.384Z,89.79
2022-07-30T05:48:10.339Z,89.22
2022-07-30T05:50:41.401Z,89.08
2022-07-30T05:53:12.252Z,89.69
2022-07-30T05:56:02.577Z,89.05
2022-07-30T05:59:01.276Z,88.85
2022-07-30T06:02:03.476Z,88.64
2022-07-30T06:05:03.496Z,88.05
2022-07-30T06:07:34.926Z,87.01
2022-07-30T06:10:06.616Z,87.63
2022-07-30T06:12:37.404Z,87.59
2022-07-30T06:15:11.098Z,87.30
2022-07-30T06:17:57.078Z,87.00
2022-07-30T06:20:46.768Z,87.69
2022-07-30T06:23:27.276Z,87.88
2022-07-30T06:26:22.505Z,87.05
2022-07-30T06:28:53.499Z,86.68
2022-07-30T06:31:30.799Z,86.60
2022-07-30T06:34:01.677Z,86.09
2022-07-30T06:36:40.429Z,86.13
2022-07-30T06:39:56.592Z,86.47
2022-07-30T06:42:41.426Z,84.79
2022-07-30T06:45:38.173Z,84.85
2022-07-30T06:48:22.276Z,86.27
2022-07-30T06:50:53.024Z,86.76
2022-07-30T06:53:26.545Z,86.56
2022-07-30T06:56:16.577Z,86.40
2022-07-30T06:58:58.102Z,86.16
2022-07-30T07:01:47.928Z,87.14
2022-07-30T07:04:19.041Z,87.71
2022-07-30T07:06:49.832Z,87.86
2022-07-30T07:09:34.035Z,87.51
2022-07-30T07:12:29.530Z,87.71
2022-07-30T07:15:00.243Z,87.72
2022-07-30T07:17:31.974Z,84.32
2022-07-30T07:20:22.878Z,85.60
2022-07-30T07:22:59.273Z,85.73
2022-07-30T07:25:32.575Z,84.68
2022-07-30T07:28:11.893Z,84.74
2022-07-30T07:30:44.844Z,85.58
2022-07-30T07:33:16.450Z,86.43
2022-07-30T07:35:50.493Z,85.94
2022-07-30T07:38:38.014Z,86.69
2022-07-30T07:41:11.415Z,86.40
2022-07-30T07:43:42.813Z,85.34
2022-07-30T07:46:33.879Z,83.75
2022-07-30T07:49:07.286Z,82.36
2022-07-30T07:51:47.152Z,81.65
2022-07-30T07:54:22.800Z,81.23
2022-07-30T07:56:59.156Z,80.85
2022-07-30T07:59:40.862Z,81.49
2022-07-30T08:02:27.835Z,81.76
2022-07-30T08:05:02.658Z,81.79
2022-07-30T08:08:10.752Z,82.17
2022-07-30T08:11:15.590Z,81.76
2022-07-30T08:14:14.502Z,81.23
2022-07-30T08:17:03.023Z,81.74
2022-07-30T08:19:54.580Z,80.86
2022-07-30T08:22:26.339Z,80.94
2022-07-30T08:24:57.578Z,82.26
2022-07-30T08:27:27.283Z,82.51
2022-07-30T08:29:59.598Z,82.82
2022-07-30T08:32:29.361Z,82.99
2022-07-30T08:35:00.113Z,81.06
2022-07-30T08:37:30.084Z,78.84
2022-07-30T08:39:59.958Z,75.31
2022-07-30T08:42:31.109Z,75.84
2022-07-30T08:45:04.892Z,74.97
2022-07-30T08:47:37.413Z,72.55
2022-07-30T08:50:16.647Z,72.85
2022-07-30T08:53:07.129Z,74.04
2022-07-30T08:55:37.063Z,73.25
2022-07-30T08:58:09.303Z,71.84
2022-07-30T09:00:41.739Z,73.02
2022-07-30T09:03:11.492Z,74.89
2022-07-30T09:05:41.849Z,74.75
2022-07-30T09:08:12.663Z,75.44
2022-07-30T09:10:53.220Z,72.96
2022-07-30T09:13:29.912Z,72.95
2022-07-30T09:16:05.626Z,71.82
2022-07-30T09:18:44.561Z,72.36
2022-07-30T09:21:20.952Z,71.84
2022-07-30T09:23:59.411Z,70.37
2022-07-30T09:26:59.226Z,70.79
2022-07-30T09:29:59.085Z,71.38
2022-07-30T09:32:56.328Z,70.35
2022-07-30T09:35:46.859Z,69.95
2022-07-30T09:38:46.238Z,71.54
2022-07-30T09:41:39.998Z,71.91
2022-07-30T09:44:27.052Z,70.43
2022-07-30T09:47:03.088Z,69.68
2022-07-30T09:49:43.570Z,70.29
2022-07-30T09:52:30.434Z,69.63
2022-07-30T09:55:01.432Z,69.97
2022-07-30T09:57:34.997Z,69.16
2022-07-30T10:00:24.215Z,70.27
2022-07-30T10:03:33.076Z,67.74
2022-07-30T10:06:37.843Z,66.61
2022-07-30T10:09:30.476Z,66.66
2022-07-30T10:12:02.660Z,66.07
2022-07-30T10:14:42.633Z,65.73
2022-07-30T10:17:15.887Z,66.04
2022-07-30T10:20:10.436Z,64.12
2022-07-30T10:23:07.989Z,64.17
2022-07-30T10:25:49.309Z,64.26
2022-07-30T10:29:00.252Z,64.87
2022-07-30T10:31:49.390Z,64.33
2022-07-30T10:34:26.081Z,63.39
2022-07-30T10:37:03.404Z,63.57
2022-07-30T10:39:40.736Z,62.87
2022-07-30T10:42:23.099Z,62.63
2022-07-30T10:45:17.554Z,62.86
2022-07-30T10:47:49.551Z,61.83
2022-07-30T10:50:22.698Z,62.68
2022-07-30T10:52:54.321Z,63.61
2022-07-30T10:55:36.836Z,61.88
2022-07-30T10:58:10.339Z,61.95
2022-07-30T11:01:03.137Z,60.47
2022-07-30T11:03:41.432Z,62.03
2022-07-30T11:06:38.705Z,58.35
2022-07-30T11:09:40.784Z,60.27
2022-07-30T11:12:15.701Z,58.77
2022-07-30T11:15:07.495Z,57.27
2022-07-30T11:18:13.033Z,53.62
2022-07-30T11:20:48.613Z,54.83
2022-07-30T11:23:40.812Z,53.10
2022-07-30T11:26:14.490Z,53.10
2022-07-30T11:28:49.719Z,53.78
2022-07-30T11:31:56.980Z,51.48
2022-07-30T11:34:30.592Z,52.79
2022-07-30T11:37:19.286Z,54.33
2022-07-30T11:40:14.762Z,53.10
2022-07-30T11:42:45.684Z,54.13
2022-07-30T11:45:35.199Z,55.96
2022-07-30T11:48:11.872Z,55.29
2022-07-30T11:50:42.027Z,54.32
2022-07-30T11:53:16.511Z,55.86
2022-07-30T11:55:48.587Z,55.84
2022-07-30T11:58:28.081Z,55.08
2022-07-30T12:01:02.033Z,53.94
2022-07-30T12:03:34.593Z,54.36
2022-07-30T12:06:07.701Z,53.00
2022-07-30T12:08:44.653Z,52.98
2022-07-30T12:11:16.602Z,53.75
2022-07-30T12:13:57.395Z,54.32
2022-07-30T12:16:30.902Z,53.12
2022-07-30T12:19:05.323Z,52.07
2022-07-30T12:21:35.996Z,51.60
2022-07-30T12:24:07.695Z,52.21
2022-07-30T12:26:37.717Z,52.19
2022-07-30T12:29:10.187Z,53.67
2022-07-30T12:31:45.265Z,53.31
2022-07-30T12:34:25.937Z,54.08
2022-07-30T12:36:57.766Z,53.17
2022-07-30T12:39:29.352Z,53.10
2022-07-30T12:41:59.180Z,53.44
2022-07-30T12:44:40.890Z,54.86
2022-07-30T12:47:25.850Z,53.48
2022-07-30T12:49:56.904Z,54.09
2022-07-30T12:52:30.781Z,53.03
2022-07-30T12:55:03.089Z,53.58
2022-07-30T12:57:58.013Z,51.92
2022-07-30T13:00:30.488Z,52.05
2022-07-30T13:03:02.845Z,53.36
2022-07-30T13:05:50.042Z,52.14
2022-07-30T13:08:20.305Z,52.19
2022-07-30T13:11:00.337Z,50.62
2022-07-30T13:13:31.062Z,50.67
2022-07-30T13:16:03.402Z,52.13
2022-07-30T13:18:37.998Z,51.51
2022-07-30T13:21:09.964Z,51.23
2022-07-30T13:23:40.800Z,52.41
2022-07-30T13:26:13.673Z,51.51
2022-07-30T13:28:43.396Z,52.01
2022-07-30T13:31:13.072Z,51.89
2022-07-30T13:33:45.414Z,51.38
2022-07-30T13:36:15.155Z,51.12
2022-07-30T13:38:45.428Z,51.67
2022-07-30T13:41:21.943Z,50.32
2022-07-30T13:43:51.715Z,51.07
2022-07-30T13:46:22.441Z,49.04
2022-07-30T13:48:55.055Z,51.71
2022-07-30T13:51:25.239Z,48.27
2022-07-30T13:53:55.152Z,49.53
2022-07-30T13:56:24.966Z,49.17
2022-07-30T13:58:56.296Z,49.11
2022-07-30T14:01:26.284Z,49.78
2022-07-30T14:03:58.708Z,48.64
2022-07-30T14:06:28.487Z,50.82
2022-07-30T14:08:58.550Z,51.92
2022-07-30T14:11:28.390Z,51.99
2022-07-30T14:13:58.114Z,51.48
2022-07-30T14:16:45.444Z,48.20
2022-07-30T14:19:22.989Z,49.89
2022-07-30T14:21:55.287Z,49.61
2022-07-30T14:24:25.597Z,50.36
2022-07-30T14:26:58.184Z,51.79
2022-07-30T14:29:28.863Z,50.86
2022-07-30T14:31:58.800Z,50.88
2022-07-30T14:34:31.218Z,52.14
2022-07-30T14:37:01.891Z,49.52
2022-07-30T14:39:31.826Z,47.43
2022-07-30T14:42:01.593Z,47.13
2022-07-30T14:44:32.901Z,47.66
2022-07-30T14:47:03.167Z,46.38
2022-07-30T14:49:36.104Z,46.86
2022-07-30T14:52:06.178Z,45.30
2022-07-30T14:54:35.970Z,44.95
2022-07-30T14:57:08.716Z,44.42
2022-07-30T14:59:39.301Z,45.46
2022-07-30T15:02:10.634Z,45.41
2022-07-30T15:04:43.363Z,43.92
2022-07-30T15:07:13.072Z,44.85
2022-07-30T15:09:42.928Z,43.80
2022-07-30T15:12:13.169Z,44.64
2022-07-30T15:14:49.972Z,43.84
2022-07-30T15:17:22.246Z,45.40
2022-07-30T15:19:54.602Z,45.73
2022-07-30T15:22:24.682Z,45.34
2022-07-30T15:24:54.528Z,44.76
2022-07-30T15:27:33.240Z,45.93
2022-07-30T15:30:04.940Z,45.98
2022-07-30T15:32:34.790Z,45.96
2022-07-30T15:35:13.181Z,45.94
2022-07-30T15:37:43.949Z,46.02
2022-07-30T15:40:14.284Z,45.92
2022-07-30T15:42:44.620Z,46.66
2022-07-30T15:45:17.775Z,46.90
2022-07-30T15:47:48.525Z,47.32
2022-07-30T15:50:21.028Z,45.11
2022-07-30T15:52:50.762Z,45.68
2022-07-30T15:55:20.851Z,46.49
2022-07-30T15:57:51.078Z,45.86
2022-07-30T16:00:20.929Z,46.55
2022-07-30T16:02:50.717Z,46.68
2022-07-30T16:05:23.075Z,46.56
2022-07-30T16:07:52.965Z,46.42
2022-07-30T16:10:22.967Z,46.40
2022-07-30T16:12:52.750Z,46.56
2022-07-30T16:15:22.490Z,45.28
2022-07-30T16:17:52.242Z,46.34
2022-07-30T16:20:24.721Z,46.33
2022-07-30T16:22:54.667Z,47.25
2022-07-30T16:25:24.518Z,47.54
2022-07-30T16:27:54.281Z,48.40
2022-07-30T16:30:27.554Z,48.85
2022-07-30T16:32:57.550Z,49.94
2022-07-30T16:35:34.436Z,49.22
2022-07-30T16:38:20.066Z,50.90
2022-07-30T16:40:52.324Z,49.98
2022-07-30T16:43:25.378Z,49.67
2022-07-30T16:45:56.732Z,49.05
2022-07-30T16:48:27.244Z,50.08
2022-07-30T16:51:00.582Z,48.17
2022-07-30T16:53:32.780Z,47.78
2022-07-30T16:56:05.908Z,48.31
2022-07-30T16:58:36.763Z,48.18
2022-07-30T17:01:08.643Z,48.08
2022-07-30T17:03:39.321Z,48.33
2022-07-30T17:06:13.495Z,47.52
2022-07-30T17:08:48.681Z,48.12
2022-07-30T17:11:47.390Z,48.23
2022-07-30T17:14:12.550Z,48.59
2022-07-30T17:16:44.776Z,48.70
2022-07-30T17:19:15.474Z,49.52
2022-07-30T17:21:49.295Z,49.50
2022-07-30T17:24:22.417Z,49.28
2022-07-30T17:26:54.613Z,49.43
2022-07-30T17:29:25.369Z,50.42
2022-07-30T17:31:56.125Z,50.91
2022-07-30T17:34:27.273Z,50.29
2022-07-30T17:37:01.139Z,50.29
2022-07-30T17:40:18.681Z,48.93
2022-07-30T17:42:25.759Z,49.30
2022-07-30T17:44:59.781Z,49.34
2022-07-30T17:47:30.273Z,48.73
2022-07-30T17:50:00.992Z,48.27
2022-07-30T17:52:34.470Z,48.45
2022-07-30T17:55:05.538Z,47.83
2022-07-30T17:57:36.202Z,47.89
2022-07-30T18:00:15.474Z,47.28
2022-07-30T18:02:46.961Z,45.61
2022-07-30T18:05:17.612Z,48.23
2022-07-30T18:07:57.363Z,49.15
2022-07-30T18:10:28.882Z,50.08
2022-07-30T18:13:22.563Z,51.65
2022-07-30T18:15:52.802Z,51.36
2022-07-30T18:18:24.566Z,50.96
2022-07-30T18:20:54.481Z,51.40
2022-07-30T18:23:28.018Z,52.11
2022-07-30T18:26:05.966Z,52.42
2022-07-30T18:28:36.847Z,52.88
2022-07-30T18:31:08.977Z,52.57
2022-07-30T18:33:38.772Z,53.78
2022-07-30T18:36:11.130Z,54.44
2022-07-30T18:38:43.360Z,55.01
2022-07-30T18:41:13.205Z,54.48
2022-07-30T18:43:47.860Z,55.26
2022-07-30T18:46:18.507Z,55.87
2022-07-30T18:48:51.430Z,55.90
2022-07-30T18:51:25.121Z,56.33
2022-07-30T18:54:01.954Z,55.76
2022-07-30T18:56:37.375Z,56.00
2022-07-30T18:59:08.095Z,53.41
2022-07-30T19:01:39.250Z,55.10
2022-07-30T19:04:10.445Z,56.44
2022-07-30T19:06:40.173Z,56.05
2022-07-30T19:09:17.178Z,56.07
2022-07-30T19:11:49.691Z,56.10
2022-07-30T19:14:24.383Z,56.07
2022-07-30T19:16:54.115Z,57.37
2022-07-30T19:19:32.723Z,57.59
2022-07-30T19:22:03.722Z,57.83
2022-07-30T19:24:36.462Z,58.24
2022-07-30T19:27:11.059Z,57.98
2022-07-30T19:29:45.416Z,58.03
2022-07-30T19:32:16.137Z,58.77
2022-07-30T19:34:49.400Z,58.68
2022-07-30T19:37:20.017Z,59.22
2022-07-30T19:40:05.274Z,59.65
2022-07-30T19:42:36.740Z,59.97
2022-07-30T19:48:03.071Z,55.28
2022-07-30T19:50:35.712Z,55.38
2022-07-30T19:53:06.919Z,56.73
2022-07-30T19:55:39.652Z,59.39
2022-07-30T19:58:16.461Z,60.57
2022-07-30T20:00:49.421Z,61.74
2022-07-30T20:03:26.007Z,62.77
2022-07-30T20:06:00.552Z,63.38
2022-07-30T20:08:30.340Z,63.60
2022-07-30T20:11:02.617Z,64.22
2022-07-30T20:13:44.020Z,64.20
2022-07-30T20:16:19.787Z,64.75
2022-07-30T20:18:49.692Z,60.55
2022-07-30T20:21:21.181Z,63.37
2022-07-30T20:24:12.295Z,64.13
2022-07-30T20:26:47.849Z,64.20
2022-07-30T20:29:19.526Z,64.75
2022-07-30T20:31:50.718Z,65.12
2022-07-30T20:34:25.912Z,65.21
2022-07-30T20:36:57.509Z,64.93
2022-07-30T20:39:27.498Z,65.20
2022-07-30T20:42:12.073Z,64.11
2022-07-30T20:44:44.492Z,64.02
2022-07-30T20:47:34.791Z,64.08
2022-07-30T20:50:10.560Z,64.75
2022-07-30T20:52:40.968Z,65.15
2022-07-30T20:55:22.056Z,64.92
2022-07-30T20:58:00.403Z,64.77
2022-07-30T21:00:49.616Z,64.91
2022-07-30T21:03:21.562Z,65.22
2022-07-30T21:05:52.506Z,64.90
2022-07-30T21:08:25.593Z,65.43
2022-07-30T21:10:57.063Z,66.06
2022-07-30T21:13:30.381Z,65.58
2022-07-30T21:16:03.583Z,66.25
2022-07-30T21:18:34.807Z,66.75
2022-07-30T21:21:05.504Z,67.04
2022-07-30T21:23:38.278Z,66.89
2022-07-30T21:26:13.456Z,67.26
2022-07-30T21:28:46.163Z,67.69
2022-07-30T21:31:15.873Z,67.85
2022-07-30T21:33:46.562Z,68.02
2022-07-30T21:36:16.529Z,68.41
2022-07-30T21:38:55.715Z,68.61
2022-07-30T21:41:37.574Z,68.09
2022-07-30T21:44:14.091Z,69.03
2022-07-30T21:46:47.850Z,68.81
2022-07-30T21:49:18.367Z,69.45
2022-07-30T21:51:48.974Z,69.48
2022-07-30T21:54:28.714Z,69.94
2022-07-30T21:56:58.729Z,69.75
2022-07-30T21:59:31.460Z,69.36
2022-07-30T22:02:02.839Z,69.96
2022-07-30T22:04:33.803Z,65.63
2022-07-30T22:07:03.544Z,67.35
2022-07-30T22:09:34.735Z,68.89
2022-07-30T22:12:09.245Z,69.19
2022-07-30T22:14:44.215Z,69.94
2022-07-30T22:17:23.417Z,69.74
2022-07-30T22:19:54.760Z,69.79
2022-07-30T22:22:26.531Z,69.92
2022-07-30T22:25:00.047Z,70.66
2022-07-30T22:27:40.360Z,70.45
2022-07-30T22:30:26.370Z,70.81
2022-07-30T22:32:56.588Z,71.44
2022-07-30T22:38:16.294Z,71.82
2022-07-30T22:40:46.173Z,72.10
2022-07-30T22:43:16.675Z,72.12
2022-07-30T22:45:50.132Z,71.54
2022-07-30T22:48:25.298Z,71.83
2022-07-30T22:50:58.490Z,71.92
2022-07-30T22:54:03.680Z,71.79
2022-07-30T22:56:25.390Z,71.92
2022-07-30T22:58:55.275Z,72.11
2022-07-30T23:01:28.683Z,70.41
2022-07-30T23:04:01.380Z,71.54
2022-07-30T23:06:33.264Z,71.71
2022-07-30T23:09:05.007Z,71.74
2022-07-30T23:11:37.385Z,71.66
2022-07-30T23:12:16.491Z,59.74
2022-07-30T23:12:33.211Z,71.10
2022-07-30T23:14:09.085Z,72.22
2022-07-30T23:16:42.906Z,72.85
2022-07-30T23:19:21.745Z,72.52
2022-07-30T23:21:53.057Z,72.62
2022-07-30T23:24:22.781Z,72.87
2022-07-30T23:26:53.585Z,73.42
2022-07-30T23:29:24.233Z,74.24
2022-07-30T23:31:57.614Z,74.43
2022-07-30T23:34:27.377Z,74.69
2022-07-30T23:36:58.222Z,74.46
2022-07-30T23:39:29.158Z,75.00
2022-07-30T23:42:00.004Z,74.70
2022-07-30T23:44:34.279Z,74.63
2022-07-30T23:47:11.216Z,74.40
2022-07-30T23:49:44.286Z,74.58
2022-07-30T23:52:15.140Z,75.52
2022-07-30T23:54:45.906Z,75.45
2022-07-30T23:57:16.714Z,74.73
2022-07-30T23:59:48.423Z,75.00
